Time;durP1;ratioP1;P1;durP2;ratioP2;P2;SDS_P1;SDS_P2;PMS_P1;PMS_P2;Temp;Humidity;BMP_temperature;BMP_pressure;BME280_temperature;BME280_humidity;BME280_pressure;Samples;Min_cycle;Max_cycle;Signal;HPM_P1;HPM_P2
2021/05/12 00:01:47;;;;;;;;;;;;;;;19.65;47.19;99787.64;1786174;78;20190;-76
2021/05/12 00:04:13;;;;;;;;;;;;;;;19.62;47.19;99793.92;1772271;80;20256;-76
2021/05/12 00:06:39;;;;;;;;;;;;;;;19.60;47.10;99794.97;1781874;80;20163;-76
2021/05/12 00:09:05;;;;;;;;;;;;;;;19.57;47.35;99789.92;1768160;80;20252;-76
2021/05/12 00:11:31;;;;;;;;;;;;;;;19.56;47.45;99796.95;1784419;78;20166;-76
2021/05/12 00:13:57;;;;;;;;;;;;;;;19.53;47.50;99790.60;1773527;80;20173;-76
2021/05/12 00:16:23;;;;;;;;;;;;;;;19.54;47.59;99788.81;1788787;80;20250;-76
2021/05/12 00:18:49;;;;;;;;;;;;;;;19.53;47.60;99788.45;1786518;78;20245;-76
2021/05/12 00:21:26;;;;;;;;;;;;;;;19.51;47.51;99792.48;1812115;78;20188;-76
2021/05/12 00:23:50;;;;;;;;;;;;;;;19.46;47.64;99795.37;1787273;80;20254;-76
2021/05/12 00:26:17;;;;;;;;;;;;;;;19.43;47.75;99788.17;1791572;78;20318;-76
2021/05/12 00:28:43;;;;;;;;;;;;;;;19.41;47.85;99790.90;1792178;79;20212;-76
2021/05/12 00:31:08;;;;;;;;;;;;;;;19.40;47.87;99788.37;1687829;80;310774;-76
2021/05/12 00:33:34;;;;;;;;;;;;;;;19.36;47.93;99791.67;1695444;83;20209;-76
2021/05/12 00:36:00;;;;;;;;;;;;;;;19.32;47.94;99787.56;1704565;83;20266;-76
2021/05/12 00:38:26;;;;;;;;;;;;;;;19.28;48.12;99797.04;1703910;83;20273;-76
2021/05/12 00:40:52;;;;;;;;;;;;;;;19.23;48.15;99792.12;1714834;83;20270;-76
2021/05/12 00:43:18;;;;;;;;;;;;;;;19.19;48.22;99797.20;1701234;83;20331;-76
2021/05/12 00:45:44;;;;;;;;;;;;;;;19.14;48.29;99790.94;1692221;83;20566;-76
2021/05/12 00:48:10;;;;;;;;;;;;;;;19.12;48.38;99788.05;1705084;83;20268;-76
2021/05/12 00:50:36;;;;;;;;;;;;;;;19.07;48.45;99788.81;1697616;83;20254;-76
2021/05/12 00:53:02;;;;;;;;;;;;;;;19.05;48.54;99789.38;1705705;83;20209;-76
2021/05/12 00:55:28;;;;;;;;;;;;;;;19.02;48.56;99795.66;1710069;83;20219;-76
2021/05/12 00:57:54;;;;;;;;;;;;;;;18.98;48.67;99792.86;1695869;83;20193;-76
2021/05/12 01:00:23;;;;;;;;;;;;;;;18.95;48.71;99787.81;1713750;83;20286;-76
2021/05/12 01:02:51;;;;;;;;;;;;;;;18.93;48.66;99787.53;1707673;83;20204;-76
2021/05/12 01:05:26;;;;;;;;;;;;;;;18.90;48.89;99788.57;1688290;83;20194;-76
2021/05/12 01:07:52;;;;;;;;;;;;;;;18.87;48.84;99785.30;1705314;83;20161;-76
2021/05/12 01:10:19;;;;;;;;;;;;;;;18.86;48.96;99791.02;1689069;84;20174;-76
2021/05/12 01:12:45;;;;;;;;;;;;;;;18.84;48.99;99797.66;1692360;84;20152;-76
2021/05/12 01:15:13;;;;;;;;;;;;;;;18.81;49.02;99793.92;1691332;84;20164;-76
2021/05/12 01:17:40;;;;;;;;;;;;;;;18.76;49.07;99790.75;1697163;83;20160;-76
2021/05/12 01:20:08;;;;;;;;;;;;;;;18.73;49.13;99787.02;1684887;84;20144;-76
2021/05/12 01:22:42;;;;;;;;;;;;;;;18.69;49.05;99781.63;1672635;83;20168;-76
2021/05/12 01:25:11;;;;;;;;;;;;;;;18.63;49.27;99783.78;1690292;84;20208;-76
2021/05/12 01:27:38;;;;;;;;;;;;;;;18.62;49.35;99784.72;1684036;83;20343;-76
2021/05/12 01:30:10;;;;;;;;;;;;;;;18.59;49.33;99783.57;1694503;83;20240;-76
2021/05/12 01:32:36;;;;;;;;;;;;;;;18.55;49.43;99782.92;1696875;83;20142;-76
2021/05/12 01:35:10;;;;;;;;;;;;;;;18.53;49.52;99787.41;1678727;83;20199;-76
2021/05/12 01:37:37;;;;;;;;;;;;;;;18.50;49.56;99783.67;1675107;83;20518;-76
2021/05/12 01:40:05;;;;;;;;;;;;;;;18.49;49.59;99789.38;1699259;83;20160;-76
2021/05/12 01:42:37;;;;;;;;;;;;;;;18.46;49.67;99786.10;1682538;83;20172;-76
2021/05/12 01:45:07;;;;;;;;;;;;;;;18.43;49.71;99787.13;1688319;83;20168;-76
2021/05/12 01:47:34;;;;;;;;;;;;;;;18.40;49.81;99785.17;1692357;83;20144;-76
2021/05/12 01:50:03;;;;;;;;;;;;;;;18.38;49.70;99782.64;1700563;83;20170;-76
2021/05/12 01:52:29;;;;;;;;;;;;;;;18.34;49.90;99776.38;1706262;83;20227;-76
2021/05/12 01:54:55;;;;;;;;;;;;;;;18.30;49.91;99778.81;1699073;83;20188;-77
2021/05/12 01:57:21;;;;;;;;;;;;;;;18.26;49.97;99776.84;1701548;83;20192;-76
2021/05/12 01:59:48;;;;;;;;;;;;;;;18.20;50.02;99774.60;1686938;83;20205;-76
2021/05/12 02:02:16;;;;;;;;;;;;;;;18.17;50.11;99777.44;1692737;83;20160;-76
2021/05/12 02:04:42;;;;;;;;;;;;;;;18.11;50.17;99781.27;1685172;83;20229;-76
2021/05/12 02:07:13;;;;;;;;;;;;;;;18.05;50.20;99777.70;1696561;83;20172;-76
2021/05/12 02:09:41;;;;;;;;;;;;;;;17.96;50.30;99778.72;1712323;83;20180;-76
2021/05/12 02:12:07;;;;;;;;;;;;;;;17.89;50.42;99778.25;1671472;84;20157;-76
2021/05/12 02:14:40;;;;;;;;;;;;;;;17.83;50.50;99778.61;1690228;83;20182;-76
2021/05/12 02:17:06;;;;;;;;;;;;;;;17.78;50.53;99777.57;1695485;83;20189;-76
2021/05/12 02:19:32;;;;;;;;;;;;;;;17.72;50.64;99775.78;1709275;83;20239;-76
2021/05/12 02:21:58;;;;;;;;;;;;;;;17.69;50.73;99774.66;1705566;83;20201;-76
2021/05/12 02:24:24;;;;;;;;;;;;;;;17.63;50.66;99767.17;1684861;84;20189;-76
2021/05/12 02:26:50;;;;;;;;;;;;;;;17.56;50.80;99774.52;1702182;83;20232;-76
2021/05/12 02:29:16;;;;;;;;;;;;;;;17.50;50.85;99770.95;1714451;83;20191;-76
2021/05/12 02:31:42;;;;;;;;;;;;;;;17.43;50.80;99769.62;1712541;83;20254;-76
2021/05/12 02:34:08;;;;;;;;;;;;;;;17.39;51.01;99769.42;1652165;84;20334;-76
2021/05/12 02:36:38;;;;;;;;;;;;;;;17.35;51.10;99764.84;1693154;83;20245;-76
2021/05/12 02:39:06;;;;;;;;;;;;;;;17.31;51.12;99771.17;1687818;83;20269;-76
2021/05/12 02:41:32;;;;;;;;;;;;;;;17.31;51.20;99769.02;1709589;83;20200;-76
2021/05/12 02:43:58;;;;;;;;;;;;;;;17.28;51.26;99766.12;1713582;83;20185;-76
2021/05/12 02:46:24;;;;;;;;;;;;;;;17.24;51.30;99763.30;1688899;83;20166;-76
2021/05/12 02:48:50;;;;;;;;;;;;;;;17.21;51.43;99759.55;1702875;83;20204;-76
2021/05/12 02:51:16;;;;;;;;;;;;;;;17.16;51.28;99755.89;1695375;83;20192;-76
2021/05/12 02:53:42;;;;;;;;;;;;;;;17.09;51.46;99756.36;1712474;83;20165;-76
2021/05/12 02:56:08;;;;;;;;;;;;;;;17.07;51.57;99759.52;1717646;83;20163;-76
2021/05/12 02:58:34;;;;;;;;;;;;;;;17.03;51.58;99751.02;1694832;83;20192;-76
2021/05/12 03:01:00;;;;;;;;;;;;;;;17.01;51.69;99753.34;1687383;83;20173;-76
2021/05/12 03:03:26;;;;;;;;;;;;;;;17.01;51.75;99754.64;1701285;83;20189;-76
2021/05/12 03:05:55;;;;;;;;;;;;;;;16.99;51.76;99758.64;1703128;83;20200;-76
2021/05/12 03:08:22;;;;;;;;;;;;;;;16.96;51.84;99753.59;1677768;84;20182;-76
2021/05/12 03:10:48;;;;;;;;;;;;;;;16.95;51.87;99756.29;1677326;84;20236;-76
2021/05/12 03:13:14;;;;;;;;;;;;;;;16.93;51.95;99757.68;1647522;84;20202;-76
2021/05/12 03:15:40;;;;;;;;;;;;;;;16.93;52.00;99754.23;1660320;84;20188;-76
2021/05/12 03:18:07;;;;;;;;;;;;;;;16.92;52.09;99759.91;1673099;84;20213;-76
2021/05/12 03:20:34;;;;;;;;;;;;;;;16.93;52.00;99758.98;1658789;84;20170;-76
2021/05/12 03:23:00;;;;;;;;;;;;;;;16.93;52.19;99751.61;1673277;84;20167;-76
2021/05/12 03:25:26;;;;;;;;;;;;;;;16.95;52.24;99755.83;1659687;84;20182;-76
2021/05/12 03:27:53;;;;;;;;;;;;;;;16.99;52.26;99759.95;1674840;84;20210;-76
2021/05/12 03:30:22;;;;;;;;;;;;;;;16.96;52.24;99759.28;1664896;84;20190;-76
2021/05/12 03:32:49;;;;;;;;;;;;;;;16.96;52.30;99754.06;1665191;84;20597;-76
2021/05/12 03:35:17;;;;;;;;;;;;;;;16.98;52.43;99762.65;1664762;84;20174;-76
2021/05/12 03:37:43;;;;;;;;;;;;;;;16.97;52.47;99762.27;1657564;84;20166;-76
2021/05/12 03:40:10;;;;;;;;;;;;;;;17.02;52.53;99767.62;1668071;83;20184;-76
2021/05/12 03:42:36;;;;;;;;;;;;;;;17.07;52.56;99769.97;1674733;84;20603;-76
2021/05/12 03:45:04;;;;;;;;;;;;;;;17.11;52.56;99769.71;1687329;83;20193;-76
2021/05/12 03:47:30;;;;;;;;;;;;;;;17.16;52.61;99775.95;1662819;84;20171;-76
2021/05/12 03:49:56;;;;;;;;;;;;;;;17.15;52.60;99775.14;1677098;84;20190;-76
2021/05/12 03:52:22;;;;;;;;;;;;;;;17.19;52.59;99769.25;1682549;84;20184;-76
2021/05/12 03:54:50;;;;;;;;;;;;;;;17.15;52.47;99768.61;1673690;83;20231;-76
2021/05/12 03:57:16;;;;;;;;;;;;;;;17.10;52.73;99769.80;1681452;84;20211;-76
2021/05/12 03:59:42;;;;;;;;;;;;;;;17.14;52.89;99764.31;1651960;84;20161;-76
2021/05/12 04:02:08;;;;;;;;;;;;;;;17.25;52.95;99766.29;1670711;84;20175;-76
2021/05/12 04:04:38;;;;;;;;;;;;;;;17.47;53.04;99764.60;1673466;84;20175;-76
2021/05/12 04:07:03;;;;;;;;;;;;;;;17.75;53.07;99767.76;1671043;84;20192;-76
2021/05/12 04:09:32;;;;;;;;;;;;;;;18.04;53.00;99776.49;1670328;83;20181;-76
2021/05/12 04:11:58;;;;;;;;;;;;;;;18.28;52.86;99776.75;1708766;82;20170;-76
2021/05/12 04:14:24;;;;;;;;;;;;;;;18.42;52.77;99780.22;1693003;84;20177;-76
2021/05/12 04:16:53;;;;;;;;;;;;;;;18.53;52.74;99776.47;1686536;83;20151;-76
2021/05/12 04:19:19;;;;;;;;;;;;;;;18.60;52.67;99775.66;1674157;84;20247;-75
2021/05/12 04:21:46;;;;;;;;;;;;;;;18.64;52.65;99777.14;1700036;84;20181;-75
2021/05/12 04:24:14;;;;;;;;;;;;;;;18.66;52.65;99787.05;1671733;84;20174;-75
2021/05/12 04:26:40;;;;;;;;;;;;;;;18.69;52.64;99793.88;1679606;84;20233;-75
2021/05/12 04:29:06;;;;;;;;;;;;;;;18.72;52.64;99795.80;1676928;84;20174;-75
2021/05/12 04:31:33;;;;;;;;;;;;;;;18.72;52.58;99796.27;1670809;84;20194;-75
2021/05/12 04:33:59;;;;;;;;;;;;;;;18.66;52.61;99792.76;1664829;84;20186;-75
2021/05/12 04:36:26;;;;;;;;;;;;;;;18.64;52.45;99800.71;1679531;84;20148;-75
2021/05/12 04:38:53;;;;;;;;;;;;;;;18.57;52.62;99798.53;1682994;84;20140;-75
2021/05/12 04:41:19;;;;;;;;;;;;;;;18.55;52.73;99793.86;1680736;84;20181;-75
2021/05/12 04:43:48;;;;;;;;;;;;;;;18.54;52.63;99796.95;1687096;84;20192;-76
2021/05/12 04:46:14;;;;;;;;;;;;;;;18.53;52.73;99795.27;1686225;84;20185;-75
2021/05/12 04:48:40;;;;;;;;;;;;;;;18.52;52.73;99796.20;1679143;84;20185;-75
2021/05/12 04:51:06;;;;;;;;;;;;;;;18.53;52.64;99797.88;1669145;84;20195;-75
2021/05/12 04:53:32;;;;;;;;;;;;;;;18.51;52.81;99795.36;1671249;84;20212;-75
2021/05/12 04:55:59;;;;;;;;;;;;;;;18.57;52.89;99795.45;1676966;84;20184;-75
2021/05/12 04:58:25;;;;;;;;;;;;;;;18.72;52.92;99798.42;1675425;83;20166;-76
2021/05/12 05:00:51;;;;;;;;;;;;;;;18.93;52.97;99797.55;1680581;83;20170;-77
2021/05/12 05:03:17;;;;;;;;;;;;;;;19.26;53.01;99797.61;1694186;82;20197;-77
2021/05/12 05:05:46;;;;;;;;;;;;;;;19.76;53.07;99794.29;1685123;83;427184;-76
2021/05/12 05:08:12;;;;;;;;;;;;;;;20.37;53.01;99791.40;1679807;84;20233;-76
2021/05/12 05:10:38;;;;;;;;;;;;;;;21.03;52.78;99791.05;1654977;83;20526;-76
2021/05/12 05:13:04;;;;;;;;;;;;;;;21.67;52.57;99794.20;1648434;85;20184;-76
2021/05/12 05:15:30;;;;;;;;;;;;;;;22.17;52.51;99796.59;1662459;85;20163;-76
2021/05/12 05:17:57;;;;;;;;;;;;;;;22.69;52.29;99792.02;1657901;85;20187;-76
2021/05/12 05:20:25;;;;;;;;;;;;;;;23.22;52.13;99802.23;1650307;85;20400;-75
2021/05/12 05:22:51;;;;;;;;;;;;;;;23.73;51.65;99793.63;1654510;85;20175;-76
2021/05/12 05:25:18;;;;;;;;;;;;;;;24.22;51.41;99784.16;1657697;85;20211;-76
2021/05/12 05:27:44;;;;;;;;;;;;;;;24.58;51.12;99783.62;1658355;84;20198;-75
2021/05/12 05:30:11;;;;;;;;;;;;;;;24.89;50.92;99782.25;1676984;84;20216;-76
2021/05/12 05:32:37;;;;;;;;;;;;;;;25.22;50.89;99788.51;1680836;83;20563;-77
2021/05/12 05:35:05;;;;;;;;;;;;;;;25.67;50.56;99799.87;1680713;83;20238;-77
2021/05/12 05:37:31;;;;;;;;;;;;;;;26.14;50.25;99794.11;1685617;83;20289;-77
2021/05/12 05:39:57;;;;;;;;;;;;;;;26.51;49.98;99792.83;1671920;84;20188;-77
2021/05/12 05:42:23;;;;;;;;;;;;;;;26.83;49.90;99803.47;1681126;84;20259;-76
2021/05/12 05:44:49;;;;;;;;;;;;;;;27.28;49.85;99802.13;1680006;83;20345;-76
2021/05/12 05:47:15;;;;;;;;;;;;;;;27.71;49.62;99801.36;1679504;84;20333;-75
2021/05/12 05:49:41;;;;;;;;;;;;;;;28.10;49.44;99799.61;1677100;83;20491;-76
2021/05/12 05:52:07;;;;;;;;;;;;;;;28.41;49.26;99805.31;1678174;84;20669;-76
2021/05/12 05:54:35;;;;;;;;;;;;;;;28.74;48.97;99799.11;1672665;84;20635;-76
2021/05/12 05:57:05;;;;;;;;;;;;;;;28.98;49.02;99802.37;1674735;84;20523;-77
2021/05/12 05:59:32;;;;;;;;;;;;;;;29.23;48.60;99797.91;1683859;84;20298;-77
2021/05/12 06:02:00;;;;;;;;;;;;;;;29.43;48.58;99803.30;1683782;84;20171;-78
2021/05/12 06:04:26;;;;;;;;;;;;;;;29.67;48.18;99801.61;1658918;84;20194;-76
2021/05/12 06:06:55;;;;;;;;;;;;;;;29.85;47.82;99811.10;1683314;84;20202;-77
2021/05/12 06:09:23;;;;;;;;;;;;;;;29.98;47.86;99817.26;1682518;83;20170;-76
2021/05/12 06:11:49;;;;;;;;;;;;;;;30.18;47.59;99813.73;1676408;84;20170;-76
2021/05/12 06:14:16;;;;;;;;;;;;;;;30.24;47.43;99817.05;1691839;83;20236;-76
2021/05/12 06:16:42;;;;;;;;;;;;;;;30.31;47.43;99815.36;1665197;85;20597;-77
2021/05/12 06:19:10;;;;;;;;;;;;;;;30.20;46.87;99821.89;1674614;83;20158;-76
2021/05/12 06:21:36;;;;;;;;;;;;;;;30.29;46.78;99820.87;1697547;83;20180;-76
2021/05/12 06:24:03;;;;;;;;;;;;;;;30.31;46.65;99816.70;1678021;84;20203;-76
2021/05/12 06:26:29;;;;;;;;;;;;;;;30.20;46.23;99827.72;1695786;83;20144;-76
2021/05/12 06:28:55;;;;;;;;;;;;;;;30.15;45.98;99821.59;1706036;83;20235;-76
2021/05/12 06:31:21;;;;;;;;;;;;;;;30.23;45.90;99829.55;1698428;83;20557;-77
2021/05/12 06:33:47;;;;;;;;;;;;;;;30.38;45.60;99824.84;1700215;83;20200;-77
2021/05/12 06:36:16;;;;;;;;;;;;;;;30.43;45.19;99829.17;1699185;83;20547;-76
2021/05/12 06:38:43;;;;;;;;;;;;;;;30.40;45.09;99831.68;1702297;83;20179;-76
2021/05/12 06:41:10;;;;;;;;;;;;;;;30.38;44.97;99828.85;1684130;84;20162;-77
2021/05/12 06:43:36;;;;;;;;;;;;;;;30.48;44.83;99830.83;1684876;84;20178;-76
2021/05/12 06:46:02;;;;;;;;;;;;;;;30.60;44.51;99832.98;1669204;85;20211;-77
2021/05/12 06:48:28;;;;;;;;;;;;;;;30.55;44.26;99833.14;1699337;83;20515;-76
2021/05/12 06:50:54;;;;;;;;;;;;;;;30.51;44.23;99837.98;1682389;83;20180;-76
2021/05/12 06:53:28;;;;;;;;;;;;;;;30.51;44.09;99837.98;1672902;83;20188;-77
2021/05/12 06:55:55;;;;;;;;;;;;;;;30.72;44.14;99849.42;1698282;83;20192;-76
2021/05/12 06:58:22;;;;;;;;;;;;;;;30.88;43.84;99841.34;1701169;83;20192;-77
2021/05/12 07:00:50;;;;;;;;;;;;;;;31.09;43.60;99850.09;1684364;84;20512;-75
2021/05/12 07:03:16;;;;;;;;;;;;;;;31.11;43.21;99849.92;1663050;85;20219;-76
2021/05/12 07:05:43;;;;;;;;;;;;;;;31.23;43.79;99853.86;1708286;83;20695;-76
2021/05/12 07:08:09;;;;;;;;;;;;;;;31.34;43.19;99860.64;1703038;83;20182;-77
2021/05/12 07:10:38;;;;;;;;;;;;;;;31.51;43.06;99859.02;1691787;83;20188;-76
2021/05/12 07:13:05;;;;;;;;;;;;;;;31.64;42.97;99862.44;1671050;84;20278;-76
2021/05/12 07:15:31;;;;;;;;;;;;;;;31.70;42.86;99858.25;1683508;83;20247;-76
2021/05/12 07:17:57;;;;;;;;;;;;;;;31.73;42.91;99859.20;1675679;84;20290;-77
2021/05/12 07:20:23;;;;;;;;;;;;;;;31.72;42.80;99867.73;1678050;84;20299;-76
2021/05/12 07:22:49;;;;;;;;;;;;;;;31.68;42.47;99865.63;1671133;84;20257;-77
2021/05/12 07:25:15;;;;;;;;;;;;;;;31.71;42.45;99868.77;1688082;84;20342;-77
2021/05/12 07:27:41;;;;;;;;;;;;;;;31.91;42.46;99871.75;1681152;84;20252;-77
2021/05/12 07:30:08;;;;;;;;;;;;;;;32.02;41.95;99873.17;1681438;84;20267;-77
2021/05/12 07:32:34;;;;;;;;;;;;;;;32.08;41.71;99865.77;1678397;83;20628;-77
2021/05/12 07:35:00;;;;;;;;;;;;;;;31.95;41.43;99873.56;1682224;84;20206;-76
2021/05/12 07:37:27;;;;;;;;;;;;;;;31.76;41.39;99882.91;1681307;83;20586;-76
2021/05/12 07:39:53;;;;;;;;;;;;;;;31.41;41.40;99885.14;1684632;83;20253;-76
2021/05/12 07:42:23;;;;;;;;;;;;;;;31.30;41.22;99879.37;1685062;84;20239;-76
2021/05/12 07:44:48;;;;;;;;;;;;;;;31.01;41.20;99882.18;1687806;84;20190;-76
2021/05/12 07:47:15;;;;;;;;;;;;;;;30.66;40.75;99876.00;1691741;84;20155;-76
2021/05/12 07:49:44;;;;;;;;;;;;;;;30.73;40.73;99876.95;1685939;84;20167;-76
2021/05/12 07:52:14;;;;;;;;;;;;;;;30.79;40.66;99878.93;1680511;84;20149;-77
2021/05/12 07:54:42;;;;;;;;;;;;;;;30.78;40.37;99873.27;1681049;84;20192;-76
2021/05/12 07:57:15;;;;;;;;;;;;;;;30.64;40.33;99878.02;1688772;84;20179;-77
2021/05/12 07:59:41;;;;;;;;;;;;;;;30.58;40.28;99881.69;1687703;84;20200;-77
2021/05/12 08:02:08;;;;;;;;;;;;;;;30.77;40.22;99883.11;1685310;84;20204;-78
2021/05/12 08:04:34;;;;;;;;;;;;;;;30.75;39.84;99877.61;1677537;84;20537;-78
2021/05/12 08:07:01;;;;;;;;;;;;;;;30.60;39.93;99877.52;1668009;84;20848;-76
2021/05/12 08:09:27;;;;;;;;;;;;;;;30.66;39.86;99880.01;1690431;83;20511;-76
2021/05/12 08:11:54;;;;;;;;;;;;;;;30.61;39.73;99884.52;1662196;83;20154;-76
2021/05/12 08:14:20;;;;;;;;;;;;;;;30.61;39.92;99883.19;1687223;84;20164;-76
2021/05/12 08:16:46;;;;;;;;;;;;;;;30.65;39.79;99883.17;1685536;84;20281;-76
2021/05/12 08:19:13;;;;;;;;;;;;;;;30.74;39.93;99883.45;1661263;84;20167;-77
2021/05/12 08:21:40;;;;;;;;;;;;;;;30.76;39.64;99881.94;1682285;84;20488;-77
2021/05/12 08:24:06;;;;;;;;;;;;;;;30.90;39.59;99890.57;1683787;84;20152;-76
2021/05/12 08:26:32;;;;;;;;;;;;;;;30.80;39.38;99877.92;1660229;85;20501;-76
2021/05/12 08:29:00;;;;;;;;;;;;;;;30.66;39.55;99880.01;1677782;84;20172;-76
2021/05/12 08:31:30;;;;;;;;;;;;;;;30.48;39.46;99879.69;1659197;85;20528;-77
2021/05/12 08:33:57;;;;;;;;;;;;;;;30.24;39.47;99879.23;1682459;84;20201;-76
2021/05/12 08:36:23;;;;;;;;;;;;;;;30.07;39.48;99882.11;1685186;84;20140;-76
2021/05/12 08:38:49;;;;;;;;;;;;;;;30.03;39.35;99880.77;1686461;84;20184;-76
2021/05/12 08:41:17;;;;;;;;;;;;;;;29.90;39.20;99884.74;1685018;83;20220;-76
2021/05/12 08:43:43;;;;;;;;;;;;;;;29.74;40.82;99882.56;1682834;84;20161;-78
2021/05/12 08:46:13;;;;;;;;;;;;;;;29.57;40.25;99878.58;1686357;84;20167;-76
2021/05/12 08:48:41;;;;;;;;;;;;;;;29.87;43.78;99877.08;1685638;84;20208;-76
2021/05/12 08:51:09;;;;;;;;;;;;;;;30.39;39.96;99880.70;1687236;83;20168;-77
2021/05/12 08:53:35;;;;;;;;;;;;;;;30.86;39.88;99881.24;1679742;84;20144;-76
2021/05/12 08:56:01;;;;;;;;;;;;;;;31.29;39.71;99882.55;1683026;83;20172;-76
2021/05/12 08:58:28;;;;;;;;;;;;;;;31.79;39.49;99883.89;1680047;83;20571;-76
2021/05/12 09:00:54;;;;;;;;;;;;;;;32.14;39.19;99876.56;1680568;84;20580;-76
2021/05/12 09:03:21;;;;;;;;;;;;;;;32.23;39.13;99876.02;1680217;84;20782;-76
2021/05/12 09:05:47;;;;;;;;;;;;;;;32.24;39.20;99879.81;1672968;84;20526;-76
2021/05/12 09:08:14;;;;;;;;;;;;;;;32.24;39.29;99877.64;1677979;84;20231;-76
2021/05/12 09:10:41;;;;;;;;;;;;;;;32.20;39.13;99881.70;1682305;83;20197;-76
2021/05/12 09:13:08;;;;;;;;;;;;;;;31.97;39.03;99881.73;1681314;83;20608;-76
2021/05/12 09:15:35;;;;;;;;;;;;;;;31.69;39.15;99886.00;1680987;84;20188;-76
2021/05/12 09:18:03;;;;;;;;;;;;;;;31.09;38.81;99877.30;1676543;83;20150;-76
2021/05/12 09:20:37;;;;;;;;;;;;;;;30.47;38.83;99873.19;1681983;84;20155;-76
2021/05/12 09:23:05;;;;;;;;;;;;;;;29.81;38.58;99873.74;1672361;84;20195;-76
2021/05/12 09:25:33;;;;;;;;;;;;;;;29.38;38.55;99872.69;1686059;84;20566;-76
2021/05/12 09:28:14;;;;;;;;;;;;;;;29.02;38.32;99871.61;1683583;84;20210;-76
2021/05/12 09:30:42;;;;;;;;;;;;;;;28.58;38.42;99868.23;1678238;84;20162;-76
2021/05/12 09:33:08;;;;;;;;;;;;;;;28.31;38.38;99875.39;1685687;84;20209;-76
2021/05/12 09:35:42;;;;;;;;;;;;;;;28.15;38.40;99879.73;1669317;84;20154;-76
2021/05/12 09:38:16;;;;;;;;;;;;;;;28.04;38.41;99878.67;1681646;84;20156;-76
2021/05/12 09:40:42;;;;;;;;;;;;;;;27.92;38.20;99879.41;1684610;84;20170;-77
2021/05/12 09:43:08;;;;;;;;;;;;;;;27.68;38.41;99876.05;1695159;84;20738;-76
2021/05/12 09:45:38;;;;;;;;;;;;;;;27.53;38.56;99877.06;1673482;84;20175;-76
2021/05/12 09:48:03;;;;;;;;;;;;;;;27.40;38.64;99877.92;1686623;84;20206;-76
2021/05/12 09:50:41;;;;;;;;;;;;;;;27.34;38.67;99875.38;1680375;84;20160;-76
2021/05/12 09:53:05;;;;;;;;;;;;;;;27.25;38.91;99881.58;1679748;84;20486;-76
2021/05/12 09:55:39;;;;;;;;;;;;;;;27.22;38.81;99879.22;1688887;84;20166;-75
2021/05/12 09:58:12;;;;;;;;;;;;;;;27.16;38.69;99882.47;1690078;84;20188;-76
2021/05/12 10:00:40;;;;;;;;;;;;;;;27.07;38.77;99879.37;1677578;84;20180;-76
2021/05/12 10:03:06;;;;;;;;;;;;;;;27.00;38.73;99881.81;1657216;84;20202;-77
2021/05/12 10:05:55;;;;;;;;;;;;;;;26.90;38.85;99885.46;1677333;84;20211;-77
2021/05/12 10:08:24;;;;;;;;;;;;;;;26.80;39.09;99886.83;1687272;84;20487;-76
2021/05/12 10:10:59;;;;;;;;;;;;;;;26.67;39.24;99887.65;1699340;83;20175;-76
2021/05/12 10:13:25;;;;;;;;;;;;;;;26.62;39.28;99887.25;1698049;82;20194;-76
2021/05/12 10:15:51;;;;;;;;;;;;;;;26.57;39.23;99889.50;1716972;83;20187;-76
2021/05/12 10:18:17;;;;;;;;;;;;;;;26.54;39.47;99888.45;1712641;83;20187;-76
2021/05/12 10:20:43;;;;;;;;;;;;;;;26.50;39.54;99890.59;1700369;83;20192;-76
2021/05/12 10:23:10;;;;;;;;;;;;;;;26.51;39.74;99886.96;1714126;83;20593;-76
2021/05/12 10:25:39;;;;;;;;;;;;;;;26.51;39.89;99892.75;1679786;84;20180;-76
2021/05/12 10:28:07;;;;;;;;;;;;;;;26.51;40.12;99888.28;1710171;83;20185;-76
2021/05/12 10:30:34;;;;;;;;;;;;;;;26.57;39.91;99888.17;1668048;84;20203;-76
2021/05/12 10:33:01;;;;;;;;;;;;;;;26.58;40.25;99883.21;1705093;82;20603;-76
2021/05/12 10:35:36;;;;;;;;;;;;;;;26.56;39.96;99877.22;1703262;82;20851;-76
2021/05/12 10:38:03;;;;;;;;;;;;;;;26.48;40.07;99885.09;1705628;82;20186;-76
2021/05/12 10:40:34;;;;;;;;;;;;;;;26.43;40.53;99879.37;1684607;84;20501;-76
2021/05/12 10:45:38;;;;;;;;;;;;;;;26.48;40.32;99881.94;1700366;82;20525;-76
2021/05/12 10:48:04;;;;;;;;;;;;;;;26.48;40.65;99879.78;1704803;83;20557;-76
2021/05/12 10:50:50;;;;;;;;;;;;;;;26.51;40.48;99878.17;1698310;83;20687;-76
2021/05/12 10:53:22;;;;;;;;;;;;;;;26.48;40.50;99883.27;1696050;83;20587;-76
2021/05/12 10:56:00;;;;;;;;;;;;;;;26.42;40.63;99884.33;1705122;83;20521;-76
2021/05/12 10:58:31;;;;;;;;;;;;;;;26.36;40.77;99879.11;1677185;84;20609;-76
2021/05/12 11:01:04;;;;;;;;;;;;;;;26.41;40.89;99881.34;1671738;84;20599;-75
2021/05/12 11:03:52;;;;;;;;;;;;;;;26.46;40.86;99879.09;1704229;83;20174;-75
2021/05/12 11:06:24;;;;;;;;;;;;;;;26.52;41.18;99879.81;1710843;83;20151;-76
2021/05/12 11:09:14;;;;;;;;;;;;;;;26.49;41.12;99879.64;1712717;83;20500;-76
2021/05/12 11:11:50;;;;;;;;;;;;;;;26.49;41.02;99873.50;1701867;83;20608;-76
2021/05/12 11:14:29;;;;;;;;;;;;;;;26.55;41.16;99875.55;1655959;84;20604;-77
2021/05/12 11:17:09;;;;;;;;;;;;;;;26.58;41.29;99875.25;1667413;85;20564;-76
2021/05/12 11:19:49;;;;;;;;;;;;;;;26.48;41.20;99873.98;1665494;84;20570;-76
2021/05/12 11:33:26;;;;;;;;;;;;;;;26.40;41.79;99876.52;1655520;85;20180;-75
2021/05/12 11:36:08;;;;;;;;;;;;;;;26.42;41.81;99871.91;1698070;83;20553;-75
2021/05/12 11:38:30;;;;;;;;;;;;;;;26.47;42.01;99876.78;1666117;84;20244;-75
2021/05/12 11:41:08;;;;;;;;;;;;;;;26.47;41.90;99876.30;1650136;85;20605;-75
2021/05/12 11:43:42;;;;;;;;;;;;;;;26.50;42.11;99877.83;1659298;85;20610;-75
2021/05/12 11:46:12;;;;;;;;;;;;;;;26.51;42.02;99874.19;1700404;83;20826;-76
2021/05/12 11:48:40;;;;;;;;;;;;;;;26.46;41.95;99872.46;1691322;83;20171;-76
2021/05/12 11:51:20;;;;;;;;;;;;;;;26.33;41.98;99870.13;1718792;82;20522;-76
2021/05/12 11:53:46;;;;;;;;;;;;;;;26.26;42.36;99867.66;1703379;83;20704;-75
2021/05/12 11:56:12;;;;;;;;;;;;;;;26.24;42.39;99867.81;1692318;83;20707;-76
2021/05/12 11:58:41;;;;;;;;;;;;;;;26.26;42.64;99872.48;1699065;83;20644;-76
2021/05/12 12:01:12;;;;;;;;;;;;;;;26.31;42.63;99869.43;1690477;83;20564;-76
2021/05/12 12:03:45;;;;;;;;;;;;;;;26.33;42.59;99863.01;1699362;83;20162;-78
2021/05/12 12:06:14;;;;;;;;;;;;;;;26.36;42.54;99861.88;1688310;83;20446;-76
2021/05/12 12:08:40;;;;;;;;;;;;;;;26.38;42.80;99858.60;1697984;83;20588;-75
2021/05/12 12:11:14;;;;;;;;;;;;;;;26.43;42.78;99853.70;1697071;83;20628;-76
2021/05/12 12:13:41;;;;;;;;;;;;;;;26.46;42.92;99853.91;1661002;84;20614;-76
2021/05/12 12:16:09;;;;;;;;;;;;;;;26.49;42.85;99850.97;1690271;83;20504;-76
2021/05/12 12:18:42;;;;;;;;;;;;;;;26.53;43.13;99850.98;1695102;83;20224;-76
2021/05/12 12:21:10;;;;;;;;;;;;;;;26.62;43.12;99851.44;1703014;83;20156;-76
2021/05/12 12:23:38;;;;;;;;;;;;;;;26.64;43.37;99856.11;1690300;83;20688;-76
2021/05/12 12:26:15;;;;;;;;;;;;;;;26.66;43.51;99852.83;1660502;85;20495;-77
2021/05/12 12:29:02;;;;;;;;;;;;;;;26.72;43.34;99849.59;1696732;83;20228;-76
2021/05/12 12:31:29;;;;;;;;;;;;;;;26.75;43.32;99843.98;1679286;83;20173;-76
2021/05/12 12:34:08;;;;;;;;;;;;;;;26.74;43.45;99843.64;1687657;83;20221;-76
2021/05/12 12:36:53;;;;;;;;;;;;;;;26.75;43.47;99847.97;1690689;83;20161;-76
2021/05/12 12:39:50;;;;;;;;;;;;;;;26.70;43.45;99848.41;1691039;83;20222;-77
2021/05/12 12:42:15;;;;;;;;;;;;;;;26.69;43.54;99843.25;1683793;83;20562;-77
2021/05/12 12:44:43;;;;;;;;;;;;;;;26.68;43.64;99838.44;1687669;83;20188;-80
2021/05/12 12:47:15;;;;;;;;;;;;;;;26.76;43.89;99836.87;1690028;83;20531;-76
2021/05/12 12:49:53;;;;;;;;;;;;;;;26.83;43.78;99839.28;1694803;83;20163;-76
2021/05/12 12:52:23;;;;;;;;;;;;;;;26.84;43.91;99834.31;1661568;84;20172;-76
2021/05/12 12:55:13;;;;;;;;;;;;;;;26.87;43.81;99838.84;1697669;83;20221;-76
2021/05/12 12:57:42;;;;;;;;;;;;;;;26.88;43.77;99839.18;1654203;84;20236;-76
2021/05/12 13:00:31;;;;;;;;;;;;;;;26.83;43.85;99840.11;1684594;83;20208;-75
2021/05/12 13:03:06;;;;;;;;;;;;;;;26.79;43.69;99842.72;1697284;83;20187;-76
2021/05/12 13:05:52;;;;;;;;;;;;;;;26.67;43.78;99844.72;1690648;84;20200;-76
2021/05/12 13:08:40;;;;;;;;;;;;;;;26.59;43.82;99835.33;1693155;83;20170;-77